Aviation Digital Data Service (ADDS)

Output produced by METARs form (0604 UTC 20 October 2018)
found at http://www.aviationweather.gov/metar/data/
 
ZMUB 200600Z 25004MPS 180V280 CAVOK 09/M07 Q1014 NOSIG RMK QFE653.4 32
TAF ZMUB 200440Z 2006/2112 VRB02MPS 9999 SCT100 TX10/2007Z TNM06/2022Z 
     BECMG 2015/2017 16005MPS 
     BECMG 2100/2102 VRB02MPS SCT033 BKN100 
     BECMG 2106/2109 33006MPS 6000 -SNRA BKN030 BKN080 
     TEMPO 2108/2112 3000